createdAt,value
2022-12-09T00:00:42.303Z,97731.09
2022-12-09T00:02:44.294Z,97729.44
2022-12-09T00:04:46.361Z,97735.31
2022-12-09T00:06:48.275Z,97721.22
2022-12-09T00:08:50.521Z,97730.63
2022-12-09T00:10:52.466Z,97719.25
2022-12-09T00:12:56.206Z,97724.06
2022-12-09T00:14:58.229Z,97721.84
2022-12-09T00:17:00.256Z,97719.59
2022-12-09T00:19:02.270Z,97716.31
2022-12-09T00:21:22.163Z,97712.22
2022-12-09T00:23:23.743Z,97708.94
2022-12-09T00:25:25.327Z,97715.38
2022-12-09T00:27:27.257Z,97710.44
2022-12-09T00:29:29.171Z,97712.34
2022-12-09T00:31:33.662Z,97713.63
2022-12-09T00:33:35.798Z,97712.81
2022-12-09T00:35:37.388Z,97713.03
2022-12-09T00:37:39.114Z,97720.53
2022-12-09T00:39:41.132Z,97721.63
2022-12-09T00:41:43.045Z,97706.47
2022-12-09T00:43:44.930Z,97717.72
2022-12-09T00:45:46.819Z,97715.28
2022-12-09T00:47:49.319Z,97714.44
2022-12-09T00:49:51.277Z,97710.09
2022-12-09T00:51:54.165Z,97714.91
2022-12-09T00:53:56.895Z,97712.47
2022-12-09T00:56:01.247Z,97713.75
2022-12-09T00:58:03.191Z,97709.41
2022-12-09T01:00:06.093Z,97709.63
2022-12-09T01:02:08.437Z,97700.97
2022-12-09T01:04:10.986Z,97707.66
2022-12-09T01:06:18.097Z,97702.47
2022-12-09T01:08:20.997Z,97701.88
2022-12-09T01:10:22.823Z,97703.75
2022-12-09T01:12:24.557Z,97708.56
2022-12-09T01:14:26.267Z,97703.41
2022-12-09T01:16:31.013Z,97713.59
2022-12-09T01:18:32.800Z,97701.19
2022-12-09T01:20:35.316Z,97694.38
2022-12-09T01:22:37.337Z,97698.13
2022-12-09T01:24:39.004Z,97694.84
2022-12-09T01:26:40.939Z,97698.00
2022-12-09T01:28:42.567Z,97707.97
2022-12-09T01:30:44.983Z,97696.59
2022-12-09T01:32:47.113Z,97701.38
2022-12-09T01:34:48.986Z,97700.81
2022-12-09T01:36:50.660Z,97695.63
2022-12-09T01:38:53.312Z,97690.47
2022-12-09T01:40:55.224Z,97698.00
2022-12-09T01:42:57.073Z,97692.00
2022-12-09T01:45:24.862Z,97686.25
2022-12-09T01:47:26.595Z,97693.97
2022-12-09T01:49:36.754Z,97682.59
2022-12-09T01:51:39.667Z,97683.66
2022-12-09T01:53:45.235Z,97683.88
2022-12-09T01:55:48.819Z,97681.44
2022-12-09T01:57:52.365Z,97683.53
2022-12-09T01:59:55.405Z,97682.13
2022-12-09T02:02:00.132Z,97688.56
2022-12-09T02:04:02.318Z,97683.41
2022-12-09T02:06:05.078Z,97677.66
2022-12-09T02:08:11.839Z,97667.09
2022-12-09T02:10:16.208Z,97667.56
2022-12-09T02:12:38.850Z,97661.78
2022-12-09T02:15:19.247Z,97658.75
2022-12-09T02:17:41.193Z,97658.16
2022-12-09T02:19:56.107Z,97658.59
2022-12-09T02:22:00.046Z,97659.66
2022-12-09T02:24:17.454Z,97653.91
2022-12-09T02:26:37.831Z,97649.78
2022-12-09T02:28:58.201Z,97654.59
2022-12-09T02:31:12.000Z,97647.22
2022-12-09T02:33:39.834Z,97647.41
2022-12-09T02:36:01.547Z,97651.41
2022-12-09T02:38:10.587Z,97650.59
2022-12-09T02:40:19.461Z,97652.69
2022-12-09T02:42:24.223Z,97652.91
2022-12-09T02:44:27.364Z,97654.78
2022-12-09T02:46:30.211Z,97646.94
2022-12-09T02:48:35.780Z,97643.41
2022-12-09T02:50:42.904Z,97646.56
2022-12-09T02:52:47.449Z,97651.13
2022-12-09T02:54:50.257Z,97650.34
2022-12-09T02:56:57.122Z,97646.22
2022-12-09T02:59:02.570Z,97650.78
2022-12-09T03:01:04.704Z,97643.75
2022-12-09T03:03:09.499Z,97645.03
2022-12-09T03:05:26.221Z,97639.88
2022-12-09T03:07:55.334Z,97644.66
2022-12-09T03:10:11.165Z,97637.88
2022-12-09T03:12:17.932Z,97631.66
2022-12-09T03:14:27.341Z,97636.44
2022-12-09T03:16:54.884Z,97636.66
2022-12-09T03:19:09.309Z,97633.63
2022-12-09T03:21:14.595Z,97639.22
2022-12-09T03:23:20.682Z,97639.47
2022-12-09T03:25:27.668Z,97634.28
2022-12-09T03:27:48.010Z,97624.78
2022-12-09T03:29:52.124Z,97624.00
2022-12-09T03:31:56.254Z,97623.16
2022-12-09T03:34:06.033Z,97623.16
2022-12-09T03:36:11.282Z,97615.53
2022-12-09T03:38:17.302Z,97617.63
2022-12-09T03:40:25.653Z,97619.50
2022-12-09T03:42:37.273Z,97615.97
2022-12-09T03:44:42.052Z,97621.38
2022-12-09T03:46:46.597Z,97616.22
2022-12-09T03:48:49.324Z,97608.34
2022-12-09T03:50:59.527Z,97606.94
2022-12-09T03:53:22.034Z,97609.03
2022-12-09T03:55:30.599Z,97610.69
2022-12-09T03:57:36.330Z,97604.25
2022-12-09T03:59:37.915Z,97606.16
2022-12-09T04:01:42.320Z,97609.41
2022-12-09T04:03:46.226Z,97607.75
2022-12-09T04:05:48.087Z,97613.97
2022-12-09T04:07:50.132Z,97605.06
2022-12-09T04:09:52.077Z,97607.75
2022-12-09T04:11:53.999Z,97605.06
2022-12-09T04:13:55.847Z,97611.28
2022-12-09T04:15:57.460Z,97611.88
2022-12-09T04:17:59.278Z,97602.75
2022-12-09T04:20:00.923Z,97601.94
2022-12-09T04:22:03.138Z,97597.38
2022-12-09T04:24:05.109Z,97599.63
2022-12-09T04:26:06.841Z,97596.94
2022-12-09T04:28:08.935Z,97590.47
2022-12-09T04:30:11.152Z,97594.00
2022-12-09T04:32:13.763Z,97586.94
2022-12-09T04:34:16.229Z,97589.19
2022-12-09T04:36:19.767Z,97583.59
2022-12-09T04:38:21.485Z,97596.81
2022-12-09T04:40:24.580Z,97595.78
2022-12-09T04:42:29.118Z,97593.09
2022-12-09T04:44:31.033Z,97581.50
2022-12-09T04:46:33.213Z,97593.09
2022-12-09T04:48:34.999Z,97583.94
2022-12-09T04:50:40.327Z,97587.72
2022-12-09T04:52:41.898Z,97593.88
2022-12-09T04:54:44.050Z,97581.25
2022-12-09T04:56:45.632Z,97589.91
2022-12-09T04:58:50.014Z,97589.91
2022-12-09T05:00:52.118Z,97595.09
2022-12-09T05:02:54.096Z,97589.91
2022-12-09T05:04:56.087Z,97588.06
2022-12-09T05:06:58.058Z,97578.13
2022-12-09T05:09:00.361Z,97580.44
2022-12-09T05:11:02.499Z,97581.50
2022-12-09T05:13:04.483Z,97568.84
2022-12-09T05:15:07.145Z,97575.88
2022-12-09T05:17:09.509Z,97570.72
2022-12-09T05:19:12.075Z,97576.13
2022-12-09T05:21:17.308Z,97569.91
2022-12-09T05:23:20.276Z,97563.47
2022-12-09T05:25:23.296Z,97573.63
2022-12-09T05:27:25.000Z,97566.63
2022-12-09T05:29:27.074Z,97560.41
2022-12-09T05:31:29.119Z,97561.22
2022-12-09T05:33:31.993Z,97562.28
2022-12-09T05:35:39.102Z,97557.72
2022-12-09T05:37:46.961Z,97556.88
2022-12-09T05:39:48.776Z,97555.03
2022-12-09T05:41:50.624Z,97558.53
2022-12-09T05:43:53.293Z,97555.59
2022-12-09T05:45:55.129Z,97545.91
2022-12-09T05:47:57.016Z,97552.09
2022-12-09T05:50:04.339Z,97546.13
2022-12-09T05:52:10.473Z,97544.69
2022-12-09T05:54:12.707Z,97536.88
2022-12-09T05:56:17.033Z,97547.41
2022-12-09T05:58:18.956Z,97542.84
2022-12-09T06:00:22.747Z,97548.47
2022-12-09T06:02:24.882Z,97537.69
2022-12-09T06:04:27.087Z,97536.03
2022-12-09T06:06:31.419Z,97538.97
2022-12-09T06:08:34.055Z,97531.94
2022-12-09T06:10:40.251Z,97533.59
2022-12-09T06:12:42.423Z,97526.78
2022-12-09T06:14:44.305Z,97527.84
2022-12-09T06:16:46.817Z,97531.56
2022-12-09T06:18:49.596Z,97529.13
2022-12-09T06:20:51.867Z,97528.28
2022-12-09T06:22:53.584Z,97520.44
2022-12-09T06:25:07.747Z,97515.06
2022-12-09T06:27:09.848Z,97512.81
2022-12-09T06:29:11.668Z,97517.38
2022-12-09T06:31:13.230Z,97521.94
2022-12-09T06:33:45.100Z,97517.63
2022-12-09T06:35:37.110Z,97506.03
2022-12-09T06:37:39.154Z,97512.25
2022-12-09T06:39:41.275Z,97511.41
2022-12-09T06:41:43.808Z,97506.84
2022-12-09T06:43:45.568Z,97499.81
2022-12-09T06:45:47.386Z,97506.84
2022-12-09T06:47:49.330Z,97506.84
2022-12-09T06:49:51.557Z,97507.44
2022-12-09T06:51:53.419Z,97510.13
2022-12-09T06:53:55.520Z,97506.41
2022-12-09T06:56:06.505Z,97499.94
2022-12-09T06:58:12.914Z,97504.28
2022-12-09T07:00:15.953Z,97510.72
2022-12-09T07:02:17.921Z,97501.59
2022-12-09T07:04:20.502Z,97513.41
2022-12-09T07:06:34.737Z,97505.34
2022-12-09T07:08:36.494Z,97509.69
2022-12-09T07:10:39.342Z,97515.41
2022-12-09T07:12:41.287Z,97512.50
2022-12-09T07:14:43.127Z,97517.91
2022-12-09T07:16:45.318Z,97510.66
2022-12-09T07:18:47.941Z,97514.13
2022-12-09T07:20:49.966Z,97516.38
2022-12-09T07:22:52.053Z,97519.66
2022-12-09T07:24:54.194Z,97522.34
2022-12-09T07:26:56.293Z,97519.44
2022-12-09T07:28:58.353Z,97523.53
2022-12-09T07:31:00.590Z,97517.09
2022-12-09T07:33:03.198Z,97517.69
2022-12-09T07:35:05.657Z,97509.38
2022-12-09T07:37:08.490Z,97515.34
2022-12-09T07:39:21.769Z,97516.75
2022-12-09T07:41:24.430Z,97511.97
2022-12-09T07:43:26.525Z,97516.31
2022-12-09T07:45:28.627Z,97509.06
2022-12-09T07:47:30.502Z,97509.63
2022-12-09T07:49:32.611Z,97502.59
2022-12-09T07:51:34.874Z,97509.38
2022-12-09T07:53:38.625Z,97493.84
2022-12-09T07:55:40.616Z,97500.84
2022-12-09T07:57:43.613Z,97506.25
2022-12-09T07:59:45.787Z,97497.34
2022-12-09T08:01:48.116Z,97510.81
2022-12-09T08:03:50.581Z,97510.81
2022-12-09T08:05:53.811Z,97515.16
2022-12-09T08:07:55.932Z,97518.22
2022-12-09T08:09:57.961Z,97506.38
2022-12-09T08:11:59.812Z,97510.72
2022-12-09T08:14:10.926Z,97515.66
2022-12-09T08:16:15.819Z,97519.75
2022-12-09T08:18:17.998Z,97508.16
2022-12-09T08:20:25.211Z,97506.41
2022-12-09T08:22:31.168Z,97501.81
2022-12-09T08:24:33.567Z,97502.41
2022-12-09T08:26:37.637Z,97498.19
2022-12-09T08:28:40.462Z,97502.28
2022-12-09T08:30:42.453Z,97497.50
2022-12-09T08:32:45.036Z,97495.38
2022-12-09T08:34:47.377Z,97494.09
2022-12-09T08:36:49.586Z,97492.78
2022-12-09T08:38:51.654Z,97489.19
2022-12-09T08:40:53.547Z,97493.84
2022-12-09T08:42:55.560Z,97491.78
2022-12-09T08:45:02.063Z,97487.53
2022-12-09T08:47:05.179Z,97487.06
2022-12-09T08:49:08.168Z,97477.44
2022-12-09T08:51:12.329Z,97476.50
2022-12-09T08:53:14.560Z,97469.59
2022-12-09T08:55:16.434Z,97478.25
2022-12-09T08:57:24.994Z,97467.25
2022-12-09T08:59:26.987Z,97468.41
2022-12-09T09:01:32.928Z,97467.09
2022-12-09T09:03:35.261Z,97463.94
2022-12-09T09:05:37.383Z,97464.28
2022-12-09T09:07:42.181Z,97458.66
2022-12-09T09:09:44.719Z,97452.78
2022-12-09T09:11:47.373Z,97457.09
2022-12-09T09:13:56.100Z,97459.31
2022-12-09T09:16:12.295Z,97444.78
2022-12-09T09:18:21.347Z,97453.22
2022-12-09T09:20:26.445Z,97456.25
2022-12-09T09:22:29.300Z,97451.69
2022-12-09T09:24:36.471Z,97453.31
2022-12-09T09:26:43.383Z,97454.50
2022-12-09T09:28:46.540Z,97443.44
2022-12-09T09:30:58.975Z,97441.09
2022-12-09T09:33:01.120Z,97439.81
2022-12-09T09:35:03.397Z,97444.22
2022-12-09T09:37:05.600Z,97440.81
2022-12-09T09:39:10.435Z,97442.78
2022-12-09T09:41:21.697Z,97436.91
2022-12-09T09:43:27.295Z,97435.63
2022-12-09T09:45:29.460Z,97442.97
2022-12-09T09:47:40.047Z,97440.84
2022-12-09T09:49:57.209Z,97434.41
2022-12-09T09:52:04.469Z,97429.31
2022-12-09T09:54:12.492Z,97439.38
2022-12-09T09:56:31.981Z,97428.09
2022-12-09T09:58:56.672Z,97426.31
2022-12-09T10:01:09.539Z,97412.56
2022-12-09T10:03:30.561Z,97417.00
2022-12-09T10:05:36.057Z,97417.09
2022-12-09T10:07:43.693Z,97415.53
2022-12-09T10:10:11.354Z,97409.63
2022-12-09T10:12:20.406Z,97417.03
2022-12-09T10:14:37.343Z,97408.66
2022-12-09T10:16:42.642Z,97414.41
2022-12-09T10:19:07.311Z,97410.97
2022-12-09T10:21:18.739Z,97397.75
2022-12-09T10:23:21.649Z,97395.41
2022-12-09T10:25:29.385Z,97398.16
2022-12-09T10:27:41.377Z,97395.81
2022-12-09T10:30:03.810Z,97398.00
2022-12-09T10:32:06.017Z,97398.31
2022-12-09T10:34:10.269Z,97399.72
2022-12-09T10:36:32.405Z,97387.25
2022-12-09T10:38:41.889Z,97376.22
2022-12-09T10:40:47.155Z,97383.56
2022-12-09T10:43:11.869Z,97384.69
2022-12-09T10:45:16.492Z,97386.69
2022-12-09T10:47:28.272Z,97396.97
2022-12-09T10:49:31.536Z,97397.91
2022-12-09T10:51:39.688Z,97389.28
2022-12-09T10:54:07.007Z,97386.09
2022-12-09T10:56:09.284Z,97381.25
2022-12-09T10:58:15.062Z,97379.09
2022-12-09T11:00:26.178Z,97373.69
2022-12-09T11:02:33.728Z,97377.78
2022-12-09T11:04:41.807Z,97377.56
2022-12-09T11:06:44.956Z,97370.81
2022-12-09T11:08:56.588Z,97377.34
2022-12-09T11:10:58.722Z,97369.56
2022-12-09T11:13:10.405Z,97361.19
2022-12-09T11:15:12.579Z,97357.16
2022-12-09T11:17:16.664Z,97365.28
2022-12-09T11:19:30.076Z,97349.59
2022-12-09T11:21:36.865Z,97356.72
2022-12-09T11:23:58.821Z,97357.59
2022-12-09T11:26:21.744Z,97351.44
2022-12-09T11:28:33.589Z,97354.19
2022-12-09T11:30:57.548Z,97348.28
2022-12-09T11:33:24.425Z,97343.75
2022-12-09T11:35:43.730Z,97346.25
2022-12-09T11:37:45.949Z,97339.81
2022-12-09T11:39:51.705Z,97332.53
2022-12-09T11:42:16.929Z,97328.00
2022-12-09T11:44:35.076Z,97326.44
2022-12-09T11:46:37.133Z,97328.25
2022-12-09T11:48:43.836Z,97324.47
2022-12-09T11:50:50.131Z,97321.75
2022-12-09T11:53:11.600Z,97321.00
2022-12-09T11:55:24.319Z,97317.22
2022-12-09T11:57:43.993Z,97318.03
2022-12-09T11:59:56.397Z,97322.44
2022-12-09T12:02:07.125Z,97323.00
2022-12-09T12:04:11.331Z,97326.56
2022-12-09T12:06:21.905Z,97327.94
2022-12-09T12:08:47.433Z,97321.97
2022-12-09T12:11:09.261Z,97314.44
2022-12-09T12:13:22.709Z,97311.19
2022-12-09T12:15:48.791Z,97316.59
2022-12-09T12:17:56.100Z,97312.06
2022-12-09T12:19:57.963Z,97292.84
2022-12-09T12:22:19.433Z,97295.28
2022-12-09T12:24:32.350Z,97293.13
2022-12-09T12:26:58.564Z,97286.66
2022-12-09T12:29:44.872Z,97291.25
2022-12-09T12:32:11.566Z,97286.13
2022-12-09T12:34:41.229Z,97289.63
2022-12-09T12:37:10.213Z,97284.50
2022-12-09T12:39:29.848Z,97278.78
2022-12-09T12:41:59.615Z,97275.84
2022-12-09T12:44:56.943Z,97279.94
2022-12-09T12:47:12.431Z,97279.94
2022-12-09T12:49:35.353Z,97279.66
2022-12-09T12:51:54.370Z,97270.47
2022-12-09T12:54:20.590Z,97275.88
2022-12-09T12:56:40.455Z,97268.31
2022-12-09T12:59:10.148Z,97265.31
2022-12-09T13:01:24.464Z,97269.41
2022-12-09T13:03:50.559Z,97270.22
2022-12-09T13:05:56.542Z,97270.53
2022-12-09T13:08:13.117Z,97285.16
2022-12-09T13:10:44.104Z,97273.50
2022-12-09T13:12:56.479Z,97271.38
2022-12-09T13:14:59.799Z,97273.81
2022-12-09T13:17:12.999Z,97267.56
2022-12-09T13:19:34.951Z,97271.94
2022-12-09T13:21:40.330Z,97271.94
2022-12-09T13:23:56.025Z,97274.63
2022-12-09T13:26:23.611Z,97269.22
2022-12-09T13:28:40.081Z,97264.34
2022-12-09T13:31:08.864Z,97263.28
2022-12-09T13:33:34.727Z,97254.03
2022-12-09T13:35:46.526Z,97260.56
2022-12-09T13:37:50.025Z,97261.66
2022-12-09T13:39:51.582Z,97262.72
2022-12-09T13:42:16.487Z,97270.84
2022-12-09T13:44:21.924Z,97254.59
2022-12-09T13:46:28.788Z,97251.88
2022-12-09T13:48:30.304Z,97254.59
2022-12-09T13:50:39.632Z,97255.41
2022-12-09T13:52:44.641Z,97254.03
2022-12-09T13:54:48.769Z,97255.16
2022-12-09T13:57:08.631Z,97257.56
2022-12-09T13:59:25.101Z,97260.00
2022-12-09T14:01:41.938Z,97261.31
2022-12-09T14:03:52.050Z,97268.91
2022-12-09T14:05:57.033Z,97262.66
2022-12-09T14:08:19.742Z,97265.66
2022-12-09T14:10:43.326Z,97260.50
2022-12-09T14:12:45.056Z,97267.31
2022-12-09T14:15:01.888Z,97257.53
2022-12-09T14:17:19.262Z,97252.38
2022-12-09T14:19:23.866Z,97253.72
2022-12-09T14:21:28.163Z,97255.09
2022-12-09T14:23:29.851Z,97256.97
2022-12-09T14:25:34.715Z,97266.16
2022-12-09T14:27:39.136Z,97268.88
2022-12-09T14:29:57.976Z,97261.03
2022-12-09T14:32:03.108Z,97272.09
2022-12-09T14:34:28.263Z,97279.13
2022-12-09T14:36:33.149Z,97274.78
2022-12-09T14:38:34.669Z,97277.75
2022-12-09T14:40:58.024Z,97279.09
2022-12-09T14:43:09.276Z,97283.97
2022-12-09T14:45:17.691Z,97290.72
2022-12-09T14:47:24.537Z,97280.94
2022-12-09T14:49:29.432Z,97281.22
2022-12-09T14:51:37.816Z,97289.09
2022-12-09T14:53:39.430Z,97291.50
2022-12-09T14:55:41.969Z,97290.13
2022-12-09T14:57:49.105Z,97294.97
2022-12-09T14:59:53.392Z,97299.84
2022-12-09T15:02:02.681Z,97303.06
2022-12-09T15:04:07.389Z,97304.41
2022-12-09T15:06:17.107Z,97298.69
2022-12-09T15:08:30.276Z,97302.47
2022-12-09T15:10:38.045Z,97305.44
2022-12-09T15:12:43.106Z,97302.97
2022-12-09T15:14:46.015Z,97292.69
2022-12-09T15:16:50.930Z,97296.47
2022-12-09T15:18:54.501Z,97296.47
2022-12-09T15:21:01.177Z,97287.78
2022-12-09T15:23:18.781Z,97289.34
2022-12-09T15:25:22.228Z,97286.66
2022-12-09T15:27:25.794Z,97286.59
2022-12-09T15:29:30.352Z,97286.06
2022-12-09T15:31:34.137Z,97289.84
2022-12-09T15:33:44.323Z,97304.44
2022-12-09T15:36:07.637Z,97297.09
2022-12-09T15:38:10.670Z,97291.94
2022-12-09T15:40:19.749Z,97293.03
2022-12-09T15:42:30.092Z,97296.78
2022-12-09T15:44:49.004Z,97301.09
2022-12-09T15:46:52.775Z,97297.84
2022-12-09T15:49:00.593Z,97303.75
2022-12-09T15:51:07.820Z,97289.91
2022-12-09T15:53:27.852Z,97296.41
2022-12-09T15:55:50.396Z,97299.84
2022-12-09T15:57:58.668Z,97302.00
2022-12-09T16:00:00.367Z,97305.78
2022-12-09T16:02:02.130Z,97295.47
2022-12-09T16:04:09.018Z,97297.59
2022-12-09T16:06:10.672Z,97294.34
2022-12-09T16:08:12.720Z,97297.31
2022-12-09T16:10:16.666Z,97295.66
2022-12-09T16:12:27.362Z,97295.94
2022-12-09T16:14:44.000Z,97304.56
2022-12-09T16:16:58.428Z,97299.09
2022-12-09T16:19:00.192Z,97299.66
2022-12-09T16:21:26.730Z,97294.50
2022-12-09T16:23:29.999Z,97299.59
2022-12-09T16:25:47.917Z,97302.00
2022-12-09T16:27:56.380Z,97306.81
2022-12-09T16:30:11.814Z,97301.13
2022-12-09T16:32:30.188Z,97294.34
2022-12-09T16:34:32.888Z,97304.81
2022-12-09T16:36:35.491Z,97298.31
2022-12-09T16:38:37.390Z,97303.72
2022-12-09T16:40:45.073Z,97303.38
2022-12-09T16:42:47.866Z,97309.06
2022-12-09T16:44:51.971Z,97311.19
2022-12-09T16:47:08.749Z,97308.16
2022-12-09T16:49:10.467Z,97308.16
2022-12-09T16:51:27.791Z,97313.84
2022-12-09T16:53:37.553Z,97307.84
2022-12-09T16:56:05.051Z,97315.06
2022-12-09T16:58:07.083Z,97319.09
2022-12-09T17:00:09.723Z,97323.13
2022-12-09T17:02:35.588Z,97328.19
2022-12-09T17:04:40.590Z,97326.53
2022-12-09T17:06:42.768Z,97328.69
2022-12-09T17:08:44.857Z,97329.50
2022-12-09T17:10:49.564Z,97332.47
2022-12-09T17:12:51.563Z,97331.88
2022-12-09T17:14:53.502Z,97321.34
2022-12-09T17:17:03.845Z,97328.06
2022-12-09T17:19:07.552Z,97327.50
2022-12-09T17:21:15.580Z,97330.69
2022-12-09T17:23:19.229Z,97333.38
2022-12-09T17:25:40.133Z,97338.22
2022-12-09T17:27:51.200Z,97346.84
2022-12-09T17:29:52.943Z,97347.09
2022-12-09T17:31:54.554Z,97345.44
2022-12-09T17:33:57.079Z,97337.00
2022-12-09T17:36:03.086Z,97338.56
2022-12-09T17:38:04.708Z,97341.53
2022-12-09T17:40:10.295Z,97341.75
2022-12-09T17:42:14.864Z,97337.69
2022-12-09T17:44:17.036Z,97341.69
2022-12-09T17:46:19.218Z,97344.66
2022-12-09T17:48:22.996Z,97357.81
2022-12-09T17:50:25.559Z,97359.97
2022-12-09T17:52:27.307Z,97356.13
2022-12-09T17:54:29.718Z,97365.28
2022-12-09T17:56:31.555Z,97361.75
2022-12-09T17:58:35.729Z,97354.97
2022-12-09T18:00:39.860Z,97364.84
2022-12-09T18:02:41.649Z,97363.25
2022-12-09T18:04:43.252Z,97362.66
2022-12-09T18:06:46.527Z,97363.16
2022-12-09T18:08:48.444Z,97361.50
2022-12-09T18:10:52.909Z,97373.63
2022-12-09T18:12:54.624Z,97372.56
2022-12-09T18:14:57.051Z,97374.44
2022-12-09T18:16:58.790Z,97372.50
2022-12-09T18:19:09.666Z,97382.47
2022-12-09T18:21:15.940Z,97371.09
2022-12-09T18:23:28.072Z,97371.56
2022-12-09T18:25:35.195Z,97376.63
2022-12-09T18:27:37.738Z,97381.47
2022-12-09T18:29:43.767Z,97378.19
2022-12-09T18:31:50.447Z,97391.13
2022-12-09T18:33:54.542Z,97391.34
2022-12-09T18:35:56.238Z,97396.16
2022-12-09T18:38:07.012Z,97395.59
2022-12-09T18:40:13.685Z,97392.56
2022-12-09T18:42:15.403Z,97390.13
2022-12-09T18:44:17.670Z,97386.59
2022-12-09T18:46:26.218Z,97395.16
2022-12-09T18:48:30.719Z,97390.03
2022-12-09T18:50:37.263Z,97395.66
2022-12-09T18:52:39.495Z,97397.78
2022-12-09T18:54:41.174Z,97394.50
2022-12-09T18:56:42.885Z,97385.84
2022-12-09T19:01:17.105Z,97386.78
2022-12-09T19:03:18.556Z,97397.00
2022-12-09T19:05:20.286Z,97393.16
2022-12-09T19:07:22.124Z,97382.84
2022-12-09T19:09:31.822Z,97379.59
2022-12-09T19:11:38.490Z,97380.88
2022-12-09T19:13:41.333Z,97389.78
2022-12-09T19:15:42.930Z,97396.72
2022-12-09T19:17:46.064Z,97398.84
2022-12-09T19:19:53.607Z,97402.00
2022-12-09T19:21:55.647Z,97410.56
2022-12-09T19:23:57.711Z,97401.91
2022-12-09T19:25:59.393Z,97400.25
2022-12-09T19:28:01.014Z,97405.81
2022-12-09T19:30:03.353Z,97403.56
2022-12-09T19:32:13.914Z,97405.44
2022-12-09T19:34:30.684Z,97412.13
2022-12-09T19:36:35.572Z,97419.44
2022-12-09T19:38:37.372Z,97414.72
2022-12-09T19:40:39.061Z,97418.50
2022-12-09T19:42:43.220Z,97417.09
2022-12-09T19:45:01.040Z,97417.31
2022-12-09T19:47:05.117Z,97417.81
2022-12-09T19:49:13.232Z,97421.81
2022-12-09T19:51:17.404Z,97425.78
2022-12-09T19:53:19.061Z,97427.09
2022-12-09T19:55:20.728Z,97431.88
2022-12-09T19:57:25.303Z,97429.66
2022-12-09T19:59:27.676Z,97434.44
2022-12-09T20:01:33.026Z,97429.31
2022-12-09T20:03:34.816Z,97428.94
2022-12-09T20:05:47.511Z,97434.59
2022-12-09T20:07:49.440Z,97434.81
2022-12-09T20:09:51.139Z,97428.25
2022-12-09T20:11:53.144Z,97434.69
2022-12-09T20:13:56.908Z,97427.91
2022-12-09T20:16:03.553Z,97438.91
2022-12-09T20:18:06.190Z,97435.66
2022-12-09T20:20:13.965Z,97442.06
2022-12-09T20:22:18.951Z,97441.75
2022-12-09T20:24:24.919Z,97443.03
2022-12-09T20:26:32.905Z,97452.16
2022-12-09T20:28:38.828Z,97446.19
2022-12-09T20:30:40.380Z,97447.22
2022-12-09T20:32:43.841Z,97453.91
2022-12-09T20:34:55.996Z,97449.81
2022-12-09T20:36:57.753Z,97451.09
2022-12-09T20:39:05.407Z,97454.84
2022-12-09T20:41:16.797Z,97449.56
2022-12-09T20:43:21.621Z,97452.25
2022-12-09T20:45:23.241Z,97448.97
2022-12-09T20:47:25.271Z,97453.78
2022-12-09T20:49:27.554Z,97456.69
2022-12-09T20:51:35.067Z,97456.34
2022-12-09T20:53:36.965Z,97460.09
2022-12-09T20:55:41.788Z,97464.06
2022-12-09T20:57:43.508Z,97461.63
2022-12-09T20:59:44.992Z,97466.41
2022-12-09T21:01:47.278Z,97469.31
2022-12-09T21:03:50.598Z,97466.03
2022-12-09T21:05:57.915Z,97474.56
2022-12-09T21:08:02.792Z,97474.00
2022-12-09T21:10:05.124Z,97470.72
2022-12-09T21:12:16.379Z,97467.44
2022-12-09T21:14:18.602Z,97470.34
2022-12-09T21:16:25.374Z,97474.09
2022-12-09T21:18:27.213Z,97474.78
2022-12-09T21:20:34.787Z,97475.84
2022-12-09T21:22:36.518Z,97475.00
2022-12-09T21:24:41.159Z,97477.13
2022-12-09T21:26:43.305Z,97477.56
2022-12-09T21:28:46.584Z,97481.31
2022-12-09T21:30:48.081Z,97468.91
2022-12-09T21:32:49.634Z,97473.47
2022-12-09T21:34:51.207Z,97472.66
2022-12-09T21:36:53.353Z,97471.22
2022-12-09T21:38:55.444Z,97474.16
2022-12-09T21:41:01.474Z,97475.44
2022-12-09T21:43:05.052Z,97472.75
2022-12-09T21:45:06.929Z,97471.09
2022-12-09T21:47:08.644Z,97476.72
2022-12-09T21:49:11.673Z,97466.16
2022-12-09T21:51:17.446Z,97478.22
2022-12-09T21:53:19.858Z,97479.03
2022-12-09T21:55:21.535Z,97477.03
2022-12-09T21:57:23.215Z,97477.03
2022-12-09T21:59:27.463Z,97480.75
2022-12-09T22:01:38.429Z,97484.72
2022-12-09T22:03:40.339Z,97485.56
2022-12-09T22:05:41.944Z,97483.31
2022-12-09T22:07:48.291Z,97479.81
2022-12-09T22:09:52.157Z,97484.38
2022-12-09T22:11:53.804Z,97484.00
2022-12-09T22:13:58.169Z,97478.63
2022-12-09T22:16:05.978Z,97486.34
2022-12-09T22:18:07.725Z,97483.03
2022-12-09T22:20:54.092Z,97481.84
2022-12-09T22:22:34.280Z,97492.81
2022-12-09T22:24:36.059Z,97489.53
2022-12-09T22:26:37.602Z,97494.56
2022-12-09T22:28:39.637Z,97504.25
2022-12-09T22:30:41.802Z,97506.38
2022-12-09T22:32:50.388Z,97505.97
2022-12-09T22:34:53.777Z,97501.66
2022-12-09T22:36:55.597Z,97500.84
2022-12-09T22:38:57.382Z,97508.91
2022-12-09T22:41:04.182Z,97511.22
2022-12-09T22:43:06.368Z,97513.09
2022-12-09T22:45:08.239Z,97514.16
2022-12-09T22:47:09.756Z,97515.19
2022-12-09T22:49:13.968Z,97515.03
2022-12-09T22:51:27.051Z,97516.09
2022-12-09T22:53:28.795Z,97513.59
2022-12-09T22:55:30.302Z,97509.50
2022-12-09T22:57:32.068Z,97516.16
2022-12-09T22:59:38.373Z,97513.69
2022-12-09T23:01:45.713Z,97513.69
2022-12-09T23:03:47.402Z,97511.25
2022-12-09T23:05:49.113Z,97511.25
2022-12-09T23:07:53.767Z,97516.81
2022-12-09T23:09:56.176Z,97509.19
2022-12-09T23:11:57.768Z,97509.44
2022-12-09T23:14:02.065Z,97524.38
2022-12-09T23:16:05.270Z,97526.00
2022-12-09T23:18:07.142Z,97519.00
2022-12-09T23:20:09.380Z,97520.03
2022-12-09T23:22:10.917Z,97520.03
2022-12-09T23:24:22.834Z,97520.47
2022-12-09T23:26:30.724Z,97522.56
2022-12-09T23:28:40.391Z,97521.38
2022-12-09T23:30:42.324Z,97519.28
2022-12-09T23:32:43.863Z,97525.34
2022-12-09T23:34:45.550Z,97522.84
2022-12-09T23:36:47.170Z,97521.88
2022-12-09T23:38:49.685Z,97518.59
2022-12-09T23:40:54.607Z,97523.13
2022-12-09T23:42:56.236Z,97526.44
2022-12-09T23:44:59.684Z,97521.28
2022-12-09T23:47:01.273Z,97526.66
2022-12-09T23:49:07.122Z,97523.38
2022-12-09T23:51:19.772Z,97525.22
2022-12-09T23:53:21.831Z,97523.13
2022-12-09T23:55:23.346Z,97520.69
2022-12-09T23:57:24.871Z,97529.19
2022-12-09T23:59:26.505Z,97527.31
